createdAt,value
2018-11-25T00:02:11.662Z,94.40
2018-11-25T00:04:41.273Z,89.80
2018-11-25T00:07:11.185Z,81.03
2018-11-25T00:09:41.293Z,84.07
2018-11-25T00:12:11.213Z,92.10
2018-11-25T00:14:41.229Z,91.23
2018-11-25T00:17:11.151Z,92.70
2018-11-25T00:19:40.965Z,98.27
2018-11-25T00:22:11.386Z,96.93
2018-11-25T00:24:41.222Z,96.13
2018-11-25T00:27:11.218Z,94.10
2018-11-25T00:29:41.126Z,88.97
2018-11-25T00:32:10.950Z,99.07
2018-11-25T00:34:40.765Z,98.67
2018-11-25T00:37:10.452Z,101.77
2018-11-25T00:39:40.898Z,91.00
2018-11-25T00:42:10.819Z,94.87
2018-11-25T00:44:40.824Z,90.70
2018-11-25T00:47:10.724Z,98.57
2018-11-25T00:49:40.551Z,90.93
2018-11-25T00:52:10.261Z,87.73
2018-11-25T00:54:40.290Z,89.10
2018-11-25T00:57:10.480Z,88.00
2018-11-25T00:59:40.623Z,90.00
2018-11-25T01:02:10.822Z,89.63
2018-11-25T01:04:40.634Z,97.93
2018-11-25T01:07:10.569Z,86.90
2018-11-25T01:09:40.460Z,98.40
2018-11-25T01:12:10.479Z,101.00
2018-11-25T01:14:40.812Z,87.40
2018-11-25T01:17:10.838Z,87.87
2018-11-25T01:19:40.739Z,93.60
2018-11-25T01:22:10.560Z,84.43
2018-11-25T01:24:40.466Z,91.37
2018-11-25T01:27:10.476Z,84.30
2018-11-25T01:29:40.389Z,88.50
2018-11-25T01:32:10.407Z,80.63
2018-11-25T01:34:40.439Z,88.03
2018-11-25T01:37:10.257Z,81.87
2018-11-25T01:39:40.378Z,83.77
2018-11-25T01:42:10.165Z,89.17
2018-11-25T01:44:40.191Z,80.40
2018-11-25T01:47:10.091Z,92.60
2018-11-25T01:49:40.111Z,98.03
2018-11-25T01:52:09.932Z,87.33
2018-11-25T01:54:39.961Z,88.50
2018-11-25T01:57:09.646Z,97.93
2018-11-25T01:59:39.581Z,100.60
2018-11-25T02:02:09.477Z,97.23
2018-11-25T02:04:39.312Z,91.87
2018-11-25T02:07:09.330Z,88.33
2018-11-25T02:09:39.318Z,91.33
2018-11-25T02:12:09.031Z,92.77
2018-11-25T02:14:39.272Z,93.27
2018-11-25T02:17:09.391Z,94.30
2018-11-25T02:19:39.193Z,92.50
2018-11-25T02:22:10.136Z,86.50
2018-11-25T02:24:39.950Z,90.20
2018-11-25T02:27:09.742Z,87.27
2018-11-25T02:29:39.874Z,87.70
2018-11-25T02:32:09.467Z,91.07
2018-11-25T02:34:39.194Z,86.37
2018-11-25T02:37:09.914Z,89.20
2018-11-25T02:39:39.952Z,101.37
2018-11-25T02:42:09.957Z,99.93
2018-11-25T02:44:39.873Z,90.17
2018-11-25T02:47:09.673Z,92.10
2018-11-25T02:49:39.484Z,94.03
2018-11-25T02:52:09.402Z,98.57
2018-11-25T02:54:41.371Z,100.70
2018-11-25T02:57:11.079Z,111.43
2018-11-25T02:59:40.775Z,98.80
2018-11-25T03:02:10.277Z,101.87
2018-11-25T03:04:40.021Z,92.43
2018-11-25T03:07:09.922Z,95.90
2018-11-25T03:09:39.816Z,88.93
2018-11-25T03:12:09.435Z,91.60
2018-11-25T03:14:39.034Z,91.07
2018-11-25T03:17:08.978Z,100.47
2018-11-25T03:19:38.858Z,88.50
2018-11-25T03:22:08.770Z,82.50
2018-11-25T03:24:38.908Z,85.50
2018-11-25T03:27:08.929Z,74.97
2018-11-25T03:29:38.726Z,92.90
2018-11-25T03:32:08.529Z,79.53
2018-11-25T03:34:38.559Z,81.37
2018-11-25T03:37:08.374Z,79.80
2018-11-25T03:39:38.073Z,77.20
2018-11-25T03:42:08.209Z,83.37
2018-11-25T03:44:38.305Z,74.83
2018-11-25T03:47:08.021Z,73.20
2018-11-25T03:49:37.725Z,80.23
2018-11-25T03:52:07.559Z,78.03
2018-11-25T03:54:38.801Z,78.60
2018-11-25T03:57:08.698Z,66.60
2018-11-25T03:59:38.718Z,70.17
2018-11-25T04:02:08.419Z,69.53
2018-11-25T04:04:38.034Z,68.73
2018-11-25T04:07:08.034Z,72.60
2018-11-25T04:09:38.299Z,65.87
2018-11-25T04:12:07.877Z,73.73
2018-11-25T04:14:37.792Z,69.70
2018-11-25T04:17:08.723Z,64.87
2018-11-25T04:19:38.641Z,65.33
2018-11-25T04:22:08.450Z,60.57
2018-11-25T04:24:38.669Z,68.30
2018-11-25T04:27:08.485Z,65.03
2018-11-25T04:29:38.830Z,78.80
2018-11-25T04:32:09.144Z,69.67
2018-11-25T04:34:39.351Z,64.33
2018-11-25T04:37:09.366Z,67.03
2018-11-25T04:39:39.283Z,70.23
2018-11-25T04:42:09.929Z,61.93
2018-11-25T04:44:39.946Z,71.50
2018-11-25T04:47:09.871Z,57.00
2018-11-25T04:49:39.762Z,58.00
2018-11-25T04:52:09.805Z,58.43
2018-11-25T04:54:39.381Z,64.17
2018-11-25T04:57:08.988Z,58.10
2018-11-25T04:59:38.513Z,64.23
2018-11-25T05:02:08.219Z,55.97
2018-11-25T05:04:37.812Z,59.27
2018-11-25T05:07:08.030Z,54.70
2018-11-25T05:09:37.742Z,60.80
2018-11-25T05:12:07.452Z,55.50
2018-11-25T05:14:37.051Z,56.73
2018-11-25T05:17:07.380Z,60.47
2018-11-25T05:19:37.312Z,53.97
2018-11-25T05:22:07.002Z,57.37
2018-11-25T05:24:36.723Z,53.23
2018-11-25T05:27:06.420Z,54.37
2018-11-25T05:29:36.225Z,51.70
2018-11-25T05:32:06.371Z,50.73
2018-11-25T05:34:35.855Z,52.20
2018-11-25T05:37:05.460Z,52.17
2018-11-25T05:39:35.479Z,52.33
2018-11-25T05:42:05.188Z,53.03
2018-11-25T05:44:34.797Z,48.30
2018-11-25T05:47:05.038Z,48.57
2018-11-25T05:49:36.752Z,45.57
2018-11-25T05:52:04.965Z,49.13
2018-11-25T05:54:34.758Z,46.97
2018-11-25T05:57:04.466Z,47.47
2018-11-25T05:59:34.428Z,44.53
2018-11-25T06:02:04.412Z,43.07
2018-11-25T06:04:34.631Z,47.47
2018-11-25T06:07:04.532Z,41.47
2018-11-25T06:09:34.981Z,42.67
2018-11-25T06:12:04.478Z,43.47
2018-11-25T06:14:34.603Z,43.80
2018-11-25T06:17:04.394Z,44.53
2018-11-25T06:19:34.341Z,45.00
2018-11-25T06:22:04.642Z,42.93
2018-11-25T06:24:34.653Z,42.27
2018-11-25T06:27:04.261Z,39.53
2018-11-25T06:29:34.272Z,43.90
2018-11-25T06:32:04.086Z,43.97
2018-11-25T06:34:33.802Z,45.87
2018-11-25T06:37:03.814Z,40.70
2018-11-25T06:39:33.930Z,42.10
2018-11-25T06:42:03.861Z,43.57
2018-11-25T06:44:33.780Z,43.53
2018-11-25T06:47:04.083Z,45.60
2018-11-25T06:49:33.998Z,42.47
2018-11-25T06:52:03.837Z,38.70
2018-11-25T06:54:33.618Z,43.50
2018-11-25T06:57:03.126Z,37.77
2018-11-25T06:59:32.835Z,42.27
2018-11-25T07:02:02.959Z,39.27
2018-11-25T07:04:32.872Z,37.03
2018-11-25T07:07:02.679Z,38.00
2018-11-25T07:09:32.797Z,43.30
2018-11-25T07:12:02.814Z,41.77
2018-11-25T07:14:32.316Z,38.97
2018-11-25T07:17:11.028Z,38.03
2018-11-25T07:19:42.393Z,37.07
2018-11-25T07:22:12.406Z,38.97
2018-11-25T07:24:42.016Z,36.67
2018-11-25T07:27:12.561Z,45.43
2018-11-25T07:29:43.370Z,42.73
2018-11-25T07:32:14.035Z,41.87
2018-11-25T07:34:45.049Z,37.23
2018-11-25T07:37:17.761Z,40.63
2018-11-25T07:39:47.662Z,46.97
2018-11-25T07:42:17.882Z,45.90
2018-11-25T07:44:47.472Z,47.93
2018-11-25T07:47:17.381Z,52.87
2018-11-25T07:49:47.311Z,44.37
2018-11-25T07:52:17.624Z,43.00
2018-11-25T07:54:47.952Z,50.57
2018-11-25T07:57:18.272Z,45.03
2018-11-25T07:59:50.444Z,44.93
2018-11-25T08:02:20.684Z,49.67
2018-11-25T08:04:51.004Z,51.47
2018-11-25T08:07:20.924Z,55.87
2018-11-25T08:09:50.932Z,59.13
2018-11-25T08:12:20.843Z,58.40
2018-11-25T08:14:50.852Z,53.77
2018-11-25T08:17:20.684Z,60.97
2018-11-25T08:19:50.804Z,61.00
2018-11-25T08:22:20.597Z,59.30
2018-11-25T08:24:50.491Z,60.07
2018-11-25T08:27:20.932Z,52.67
2018-11-25T08:29:50.964Z,63.43
2018-11-25T08:32:20.972Z,56.83
2018-11-25T08:34:50.804Z,53.97
2018-11-25T08:37:21.612Z,59.57
2018-11-25T08:39:51.415Z,52.50
2018-11-25T08:42:21.333Z,63.97
2018-11-25T08:44:51.251Z,58.70
2018-11-25T08:47:21.284Z,57.20
2018-11-25T08:49:51.292Z,66.40
2018-11-25T08:52:21.093Z,59.53
2018-11-25T08:54:50.924Z,61.83
2018-11-25T08:57:20.931Z,61.93
2018-11-25T08:59:51.452Z,63.07
2018-11-25T09:02:21.484Z,68.10
2018-11-25T09:04:51.892Z,69.07
2018-11-25T09:07:21.812Z,79.20
2018-11-25T09:09:51.932Z,66.53
2018-11-25T09:12:21.964Z,74.70
2018-11-25T09:14:51.971Z,72.83
2018-11-25T09:17:22.405Z,65.67
2018-11-25T09:19:52.324Z,63.73
2018-11-25T09:22:22.732Z,69.13
2018-11-25T09:24:52.964Z,60.73
2018-11-25T09:27:23.044Z,58.33
2018-11-25T09:29:53.292Z,56.17
2018-11-25T09:32:23.412Z,54.03
2018-11-25T09:34:53.932Z,58.50
2018-11-25T09:37:24.291Z,48.27
2018-11-25T09:39:54.604Z,60.83
2018-11-25T09:42:24.924Z,63.20
2018-11-25T09:44:54.932Z,62.27
2018-11-25T09:47:25.163Z,65.47
2018-11-25T09:49:55.375Z,57.07
2018-11-25T09:52:25.372Z,52.80
2018-11-25T09:54:55.933Z,50.17
2018-11-25T09:57:26.131Z,53.03
2018-11-25T09:59:56.164Z,53.70
2018-11-25T10:02:26.373Z,52.07
2018-11-25T10:04:56.611Z,50.47
2018-11-25T10:07:26.493Z,50.40
2018-11-25T10:09:56.732Z,52.33
2018-11-25T10:12:27.292Z,61.93
2018-11-25T10:14:57.374Z,110.53
2018-11-25T10:17:27.190Z,75.10
2018-11-25T10:19:57.022Z,88.50
2018-11-25T10:22:27.030Z,106.20
2018-11-25T10:24:57.019Z,42.53
2018-11-25T10:27:26.836Z,49.53
2018-11-25T10:29:56.747Z,46.57
2018-11-25T10:32:27.058Z,42.77
2018-11-25T10:34:57.089Z,38.80
2018-11-25T10:37:26.901Z,33.43
2018-11-25T10:39:56.931Z,28.73
2018-11-25T10:42:26.929Z,44.80
2018-11-25T10:44:57.369Z,43.07
2018-11-25T10:47:27.982Z,43.00
2018-11-25T10:49:57.809Z,42.07
2018-11-25T10:52:27.713Z,44.27
2018-11-25T10:54:57.531Z,38.97
2018-11-25T10:57:27.127Z,42.57
2018-11-25T10:59:57.252Z,50.43
2018-11-25T11:02:30.957Z,52.70
2018-11-25T11:05:04.452Z,47.37
2018-11-25T11:07:39.067Z,41.00
2018-11-25T11:10:09.806Z,43.77
2018-11-25T11:12:39.757Z,26.67
2018-11-25T11:15:11.286Z,25.77
2018-11-25T11:17:40.982Z,22.60
2018-11-25T11:20:11.097Z,19.23
2018-11-25T11:22:40.706Z,16.17
2018-11-25T11:25:10.416Z,15.80
2018-11-25T11:27:40.023Z,17.57
2018-11-25T11:30:10.570Z,20.37
2018-11-25T11:32:42.415Z,21.00
2018-11-25T11:35:22.072Z,24.23
2018-11-25T11:37:53.400Z,26.43
2018-11-25T11:40:25.038Z,24.23
2018-11-25T11:42:54.981Z,24.37
2018-11-25T11:45:25.195Z,24.30
2018-11-25T11:47:56.130Z,23.37
2018-11-25T11:50:26.566Z,17.17
2018-11-25T11:52:56.367Z,19.73
2018-11-25T11:55:26.181Z,16.37
2018-11-25T11:57:56.617Z,17.70
2018-11-25T12:00:28.021Z,15.83
2018-11-25T12:02:57.874Z,15.23
2018-11-25T12:05:29.026Z,13.70
2018-11-25T12:07:58.828Z,15.13
2018-11-25T12:10:29.455Z,14.60
2018-11-25T12:13:00.393Z,15.40
2018-11-25T12:15:31.214Z,13.60
2018-11-25T12:18:01.858Z,14.70
2018-11-25T12:20:33.519Z,13.40
2018-11-25T12:23:03.030Z,13.30
2018-11-25T12:25:32.839Z,13.47
2018-11-25T12:28:09.036Z,14.43
2018-11-25T12:30:41.991Z,14.67
2018-11-25T12:33:12.915Z,11.63
2018-11-25T12:35:42.840Z,14.47
2018-11-25T12:38:13.457Z,11.97
2018-11-25T12:40:44.028Z,17.00
2018-11-25T12:43:14.826Z,15.17
2018-11-25T12:45:44.637Z,17.77
2018-11-25T12:48:14.140Z,16.20
2018-11-25T12:50:50.749Z,18.43
2018-11-25T12:53:21.970Z,16.10
2018-11-25T12:55:54.130Z,17.83
2018-11-25T12:58:26.059Z,17.07
2018-11-25T13:00:57.536Z,16.50
2018-11-25T13:03:27.858Z,18.17
2018-11-25T13:05:58.797Z,16.90
2018-11-25T13:08:40.768Z,17.10
2018-11-25T13:11:11.529Z,18.80
2018-11-25T13:13:52.029Z,15.93
2018-11-25T13:16:24.669Z,17.47
2018-11-25T13:18:56.840Z,17.13
2018-11-25T13:21:29.718Z,16.10
2018-11-25T13:24:01.376Z,16.10
2018-11-25T13:26:33.550Z,15.03
2018-11-25T13:29:04.377Z,16.23
2018-11-25T13:31:34.597Z,15.73
2018-11-25T13:34:04.819Z,17.47
2018-11-25T13:36:34.841Z,23.93
2018-11-25T13:39:06.291Z,19.07
2018-11-25T13:41:36.932Z,22.57
2018-11-25T13:44:07.126Z,22.10
2018-11-25T13:46:37.564Z,23.60
2018-11-25T13:49:08.222Z,23.80
2018-11-25T13:51:38.728Z,42.00
2018-11-25T13:54:08.636Z,42.00
2018-11-25T13:56:38.034Z,30.80
2018-11-25T13:59:07.958Z,58.37
2018-11-25T14:01:37.570Z,40.17
2018-11-25T14:04:08.083Z,55.20
2018-11-25T14:06:37.909Z,18.47
2018-11-25T14:09:10.479Z,61.57
2018-11-25T14:11:40.287Z,77.47
2018-11-25T14:14:10.210Z,109.70
2018-11-25T14:16:40.119Z,72.30
2018-11-25T14:19:10.437Z,66.97
2018-11-25T14:21:41.432Z,58.23
2018-11-25T14:24:11.704Z,78.50
2018-11-25T14:26:45.721Z,66.17
2018-11-25T14:29:15.831Z,124.83
2018-11-25T14:31:46.359Z,110.83
2018-11-25T14:34:16.378Z,305.93
2018-11-25T14:36:46.197Z,309.27
2018-11-25T14:39:16.310Z,383.93
2018-11-25T14:41:46.015Z,412.63
2018-11-25T14:44:17.782Z,326.13
2018-11-25T14:46:48.095Z,332.20
2018-11-25T14:49:19.246Z,309.83
2018-11-25T14:51:49.569Z,305.37
2018-11-25T14:54:20.516Z,379.17
2018-11-25T14:56:52.023Z,523.97
2018-11-25T14:59:23.920Z,516.40
2018-11-25T15:01:56.031Z,491.80
2018-11-25T15:04:27.739Z,429.60
2018-11-25T15:06:59.897Z,385.43
2018-11-25T15:09:30.125Z,306.03
2018-11-25T15:12:00.967Z,295.97
2018-11-25T15:14:31.935Z,303.10
2018-11-25T15:17:02.068Z,265.63
2018-11-25T15:19:38.487Z,306.47
2018-11-25T15:22:08.507Z,267.27
2018-11-25T15:24:39.339Z,251.87
2018-11-25T15:27:09.879Z,286.87
2018-11-25T15:29:42.017Z,286.37
2018-11-25T15:32:12.986Z,254.47
2018-11-25T15:34:45.952Z,287.80
2018-11-25T15:37:19.593Z,317.50
2018-11-25T15:39:50.405Z,260.20
2018-11-25T15:42:21.348Z,312.13
2018-11-25T15:44:53.022Z,198.37
2018-11-25T15:47:23.833Z,205.83
2018-11-25T15:49:54.347Z,275.70
2018-11-25T15:52:25.082Z,300.00
2018-11-25T15:54:55.303Z,263.97
2018-11-25T15:57:25.831Z,214.40
2018-11-25T15:59:55.643Z,220.10
2018-11-25T16:02:26.490Z,204.70
2018-11-25T16:04:57.732Z,234.23
2018-11-25T16:07:28.356Z,229.77
2018-11-25T16:10:01.125Z,233.07
2018-11-25T16:12:32.386Z,206.50
2018-11-25T16:15:04.034Z,224.47
2018-11-25T16:17:35.394Z,217.73
2018-11-25T16:20:08.382Z,229.23
2018-11-25T16:22:41.873Z,235.00
2018-11-25T16:25:14.146Z,250.73
2018-11-25T16:27:44.375Z,289.27
2018-11-25T16:30:32.055Z,276.23
2018-11-25T16:33:03.274Z,239.27
2018-11-25T16:35:34.587Z,328.03
2018-11-25T16:38:05.348Z,278.30
2018-11-25T16:40:35.779Z,302.50
2018-11-25T16:43:06.386Z,352.17
2018-11-25T16:45:37.026Z,261.33
2018-11-25T16:48:08.033Z,282.07
2018-11-25T16:50:39.511Z,269.30
2018-11-25T16:53:13.403Z,333.67
2018-11-25T16:55:43.955Z,313.43
2018-11-25T16:58:14.267Z,259.50
2018-11-25T17:00:44.490Z,257.37
2018-11-25T17:03:15.818Z,271.40
2018-11-25T17:05:46.986Z,244.27
2018-11-25T17:08:18.026Z,275.17
2018-11-25T17:10:48.733Z,319.23
2018-11-25T17:13:18.658Z,328.97
2018-11-25T17:15:48.585Z,354.70
2018-11-25T17:18:18.585Z,358.70
2018-11-25T17:20:48.569Z,291.43
2018-11-25T17:23:18.019Z,280.33
2018-11-25T17:25:47.925Z,291.10
2018-11-25T17:28:17.937Z,279.60
2018-11-25T17:30:48.804Z,407.57
2018-11-25T17:33:19.310Z,445.57
2018-11-25T17:35:49.330Z,380.40
2018-11-25T17:38:19.746Z,314.03
2018-11-25T17:40:49.877Z,291.37
2018-11-25T17:43:20.506Z,396.77
2018-11-25T17:45:50.721Z,343.80
2018-11-25T17:48:20.834Z,336.20
2018-11-25T17:50:51.066Z,285.63
2018-11-25T17:53:21.492Z,304.60
2018-11-25T17:55:51.914Z,288.50
2018-11-25T17:58:22.129Z,225.33
2018-11-25T18:00:55.833Z,185.07
2018-11-25T18:03:26.253Z,144.57
2018-11-25T18:05:56.175Z,90.97
2018-11-25T18:08:26.306Z,90.67
2018-11-25T18:10:56.019Z,91.47
2018-11-25T18:13:26.822Z,106.00
2018-11-25T18:15:57.273Z,240.90
2018-11-25T18:18:31.266Z,180.53
2018-11-25T18:21:02.240Z,148.90
2018-11-25T18:23:32.642Z,164.13
2018-11-25T18:26:05.211Z,159.93
2018-11-25T18:28:35.955Z,177.57
2018-11-25T18:31:06.282Z,172.83
2018-11-25T18:33:36.191Z,130.37
2018-11-25T18:36:06.940Z,123.90
2018-11-25T18:38:37.234Z,181.47
2018-11-25T18:41:11.628Z,148.30
2018-11-25T18:43:42.376Z,200.13
2018-11-25T18:46:14.554Z,151.93
2018-11-25T18:48:45.934Z,173.87
2018-11-25T18:51:15.507Z,202.63
2018-11-25T18:53:45.487Z,269.13
2018-11-25T18:56:15.455Z,261.43
2018-11-25T18:58:45.579Z,223.93
2018-11-25T19:01:16.831Z,187.43
2018-11-25T19:03:47.352Z,157.30
2018-11-25T19:06:17.620Z,176.80
2018-11-25T19:08:47.585Z,117.60
2018-11-25T19:11:17.595Z,229.47
2018-11-25T19:13:48.338Z,213.70
2018-11-25T19:16:18.654Z,322.23
2018-11-25T19:18:48.553Z,225.03
2018-11-25T19:21:18.809Z,215.37
2018-11-25T19:23:49.143Z,132.37
2018-11-25T19:26:19.130Z,142.80
2018-11-25T19:28:49.143Z,113.00
2018-11-25T19:31:18.866Z,120.40
2018-11-25T19:33:48.754Z,116.63
2018-11-25T19:36:18.482Z,118.63
2018-11-25T19:38:48.618Z,104.53
2018-11-25T19:41:18.922Z,132.30
2018-11-25T19:43:48.947Z,122.63
2018-11-25T19:46:19.562Z,131.93
2018-11-25T19:48:49.476Z,102.30
2018-11-25T19:51:19.909Z,106.70
2018-11-25T19:53:49.946Z,100.60
2018-11-25T19:56:19.627Z,98.37
2018-11-25T19:58:49.950Z,107.23
2018-11-25T20:01:19.866Z,127.20
2018-11-25T20:03:49.698Z,134.40
2018-11-25T20:06:19.373Z,130.43
2018-11-25T20:08:49.026Z,108.67
2018-11-25T20:11:18.915Z,95.87
2018-11-25T20:13:48.814Z,98.67
2018-11-25T20:16:22.545Z,79.13
2018-11-25T20:18:52.546Z,79.93
2018-11-25T20:21:33.196Z,72.63
2018-11-25T20:24:03.109Z,60.57
2018-11-25T20:26:33.146Z,54.57
2018-11-25T20:29:04.594Z,53.37
2018-11-25T20:31:35.122Z,54.83
2018-11-25T20:34:07.218Z,56.33
2018-11-25T20:36:37.939Z,55.23
2018-11-25T20:39:28.826Z,50.50
2018-11-25T20:42:00.468Z,58.97
2018-11-25T20:44:31.919Z,53.87
2018-11-25T20:47:06.134Z,52.90
2018-11-25T20:49:38.308Z,55.60
2018-11-25T20:52:13.666Z,56.27
2018-11-25T20:54:45.917Z,62.57
2018-11-25T20:57:19.538Z,67.03
2018-11-25T20:59:54.978Z,70.70
2018-11-25T21:02:29.328Z,82.60
2018-11-25T21:04:57.026Z,84.27
2018-11-25T21:07:27.466Z,75.93
2018-11-25T21:10:02.066Z,72.30
2018-11-25T21:12:33.146Z,75.70
2018-11-25T21:15:19.026Z,64.60
2018-11-25T21:17:51.187Z,81.40
2018-11-25T21:20:22.666Z,130.03
2018-11-25T21:22:52.857Z,159.23
2018-11-25T21:25:25.034Z,205.17
2018-11-25T21:28:00.898Z,180.87
2018-11-25T21:31:00.422Z,161.47
2018-11-25T21:33:58.386Z,150.00
2018-11-25T21:36:40.467Z,150.20
2018-11-25T21:39:13.979Z,156.00
2018-11-25T21:41:44.385Z,165.63
2018-11-25T21:44:14.679Z,159.80
2018-11-25T21:46:44.858Z,146.13
2018-11-25T21:49:15.378Z,122.20
2018-11-25T21:51:45.578Z,119.87
2018-11-25T21:54:16.019Z,106.63
2018-11-25T21:56:46.413Z,71.60
2018-11-25T21:59:16.294Z,66.27
2018-11-25T22:01:46.378Z,76.17
2018-11-25T22:04:16.783Z,72.30
2018-11-25T22:06:47.338Z,65.33
2018-11-25T22:09:17.669Z,73.17
2018-11-25T22:11:47.378Z,72.80
2018-11-25T22:14:17.866Z,65.43
2018-11-25T22:16:48.018Z,77.57
2018-11-25T22:19:18.026Z,72.50
2018-11-25T22:21:47.829Z,74.77
2018-11-25T22:24:17.638Z,74.10
2018-11-25T22:26:47.566Z,87.70
2018-11-25T22:29:17.873Z,84.23
2018-11-25T22:31:47.598Z,81.63
2018-11-25T22:34:17.593Z,80.30
2018-11-25T22:36:47.918Z,192.47
2018-11-25T22:39:17.737Z,198.83
2018-11-25T22:41:47.541Z,139.13
2018-11-25T22:44:17.454Z,303.57
2018-11-25T22:46:47.365Z,171.70
2018-11-25T22:49:16.882Z,111.87
2018-11-25T22:51:46.786Z,141.77
2018-11-25T22:54:16.826Z,95.10
2018-11-25T22:56:46.719Z,84.70
2018-11-25T22:59:16.426Z,94.13
2018-11-25T23:01:46.022Z,93.03
2018-11-25T23:04:20.346Z,90.13
2018-11-25T23:06:54.574Z,94.43
2018-11-25T23:09:24.682Z,98.93
2018-11-25T23:11:54.487Z,105.13
2018-11-25T23:14:24.507Z,117.87
2018-11-25T23:16:54.425Z,110.50
2018-11-25T23:19:24.034Z,119.30
2018-11-25T23:21:53.868Z,115.10
2018-11-25T23:24:23.780Z,129.13
2018-11-25T23:26:53.893Z,122.70
2018-11-25T23:29:23.484Z,119.30
2018-11-25T23:31:53.212Z,122.33
2018-11-25T23:34:22.922Z,124.73
2018-11-25T23:36:52.820Z,106.77
2018-11-25T23:39:22.960Z,118.83
2018-11-25T23:41:52.770Z,115.07
2018-11-25T23:44:22.374Z,141.33
2018-11-25T23:46:52.280Z,168.27
2018-11-25T23:49:22.020Z,156.20
2018-11-25T23:51:51.809Z,229.47
2018-11-25T23:54:22.020Z,323.87
2018-11-25T23:56:51.930Z,230.83
2018-11-25T23:59:21.528Z,185.20
